createdAt,value
2023-02-21T00:00:06.921Z,98823.38
2023-02-21T00:05:50.581Z,98819.81
2023-02-21T00:11:13.607Z,98808.17
2023-02-21T00:16:37.226Z,98807.08
2023-02-21T00:21:58.858Z,98801.79
2023-02-21T00:27:21.117Z,98795.52
2023-02-21T00:32:43.639Z,98795.34
2023-02-21T00:38:11.198Z,98785.09
2023-02-21T00:43:36.394Z,98781.06
2023-02-21T00:48:58.829Z,98767.39
2023-02-21T00:54:21.521Z,98763.48
2023-02-21T00:59:44.643Z,98755.23
2023-02-21T01:05:07.571Z,98746.27
2023-02-21T01:10:28.926Z,98748.10
2023-02-21T01:15:50.248Z,98743.31
2023-02-21T01:21:14.325Z,98742.36
2023-02-21T01:26:37.104Z,98745.01
2023-02-21T01:32:00.440Z,98744.79
2023-02-21T01:37:22.640Z,98737.61
2023-02-21T01:42:47.463Z,98728.89
2023-02-21T01:48:11.190Z,98724.59
2023-02-21T01:53:40.585Z,98721.93
2023-02-21T01:59:03.213Z,98727.66
2023-02-21T02:04:26.032Z,98729.66
2023-02-21T02:09:48.627Z,98730.36
2023-02-21T02:15:11.112Z,98728.42
2023-02-21T02:20:33.628Z,98719.70
2023-02-21T02:26:06.898Z,98718.00
2023-02-21T02:31:21.368Z,98711.49
2023-02-21T02:36:41.494Z,98721.81
2023-02-21T02:42:09.689Z,98730.58
2023-02-21T02:47:22.828Z,98727.67
2023-02-21T02:52:25.592Z,98733.42
2023-02-21T02:57:40.828Z,98729.42
2023-02-21T03:03:02.278Z,98730.42
2023-02-21T03:08:26.743Z,98720.23
2023-02-21T03:13:52.884Z,98725.34
2023-02-21T03:19:09.403Z,98733.70
2023-02-21T03:24:16.043Z,98733.71
2023-02-21T03:29:20.203Z,98739.13
2023-02-21T03:34:23.416Z,98735.39
2023-02-21T03:39:26.169Z,98734.31
2023-02-21T03:44:29.050Z,98730.11
2023-02-21T03:49:31.692Z,98729.64
2023-02-21T03:54:33.683Z,98718.23
2023-02-21T03:59:36.782Z,98723.79
2023-02-21T04:04:39.884Z,98716.78
2023-02-21T04:09:43.892Z,98718.25
2023-02-21T04:14:46.179Z,98720.36
2023-02-21T04:19:49.655Z,98711.59
2023-02-21T04:24:53.185Z,98715.05
2023-02-21T04:29:56.703Z,98710.29
2023-02-21T04:35:00.335Z,98723.73
2023-02-21T04:40:02.842Z,98729.41
2023-02-21T04:45:06.016Z,98731.58
2023-02-21T04:50:09.102Z,98733.89
2023-02-21T04:55:13.532Z,98741.62
2023-02-21T05:00:16.210Z,98734.00
2023-02-21T05:05:19.441Z,98739.07
2023-02-21T05:10:23.315Z,98739.94
2023-02-21T05:15:26.014Z,98743.98
2023-02-21T05:20:28.978Z,98754.91
2023-02-21T05:25:32.128Z,98751.54
2023-02-21T05:30:36.718Z,98760.11
2023-02-21T05:35:40.229Z,98760.63
2023-02-21T05:40:43.830Z,98771.11
2023-02-21T05:45:46.080Z,98780.15
2023-02-21T05:50:48.033Z,98773.42
2023-02-21T05:55:51.301Z,98784.20
2023-02-21T06:00:55.040Z,98801.98
2023-02-21T06:06:00.125Z,98811.60
2023-02-21T06:11:03.370Z,98822.44
2023-02-21T06:16:07.546Z,98828.63
2023-02-21T06:21:10.336Z,98837.58
2023-02-21T06:26:15.319Z,98852.98
2023-02-21T06:31:21.017Z,98858.14
2023-02-21T06:36:26.992Z,98855.11
2023-02-21T06:41:31.182Z,98867.05
2023-02-21T06:46:38.963Z,98874.09
2023-02-21T06:51:44.040Z,98883.67
2023-02-21T06:56:47.689Z,98885.75
2023-02-21T07:01:50.785Z,98891.88
2023-02-21T07:06:54.553Z,98908.63
2023-02-21T07:11:58.280Z,98918.56
2023-02-21T07:17:00.686Z,98919.81
2023-02-21T07:22:03.505Z,98928.12
2023-02-21T07:27:07.200Z,98925.15
2023-02-21T07:32:10.202Z,98932.33
2023-02-21T07:37:13.528Z,98937.49
2023-02-21T07:42:16.947Z,98926.45
2023-02-21T07:47:19.493Z,98928.67
2023-02-21T07:52:23.224Z,98925.81
2023-02-21T07:57:26.218Z,98931.22
2023-02-21T08:02:29.720Z,98953.25
2023-02-21T08:07:32.811Z,98961.85
2023-02-21T08:12:36.602Z,98964.71
2023-02-21T08:17:39.962Z,98972.56
2023-02-21T08:22:43.350Z,98980.95
2023-02-21T08:27:53.888Z,98982.94
2023-02-21T08:32:57.649Z,98995.21
2023-02-21T08:38:05.289Z,99010.17
2023-02-21T08:43:08.512Z,99021.52
2023-02-21T08:48:13.622Z,99026.15
2023-02-21T08:53:16.478Z,99035.93
2023-02-21T08:58:18.860Z,99035.95
2023-02-21T09:03:20.590Z,99037.38
2023-02-21T09:08:27.092Z,99040.13
2023-02-21T09:13:34.762Z,99041.60
2023-02-21T09:18:38.276Z,99045.27
2023-02-21T09:23:40.987Z,99049.33
2023-02-21T09:28:43.784Z,99055.05
2023-02-21T09:33:46.546Z,99060.54
2023-02-21T09:38:49.897Z,99071.77
2023-02-21T09:43:55.070Z,99084.70
2023-02-21T09:48:58.631Z,99072.80
2023-02-21T09:54:03.874Z,99082.49
2023-02-21T09:59:12.996Z,99083.71
2023-02-21T10:04:30.921Z,99094.71
2023-02-21T10:09:46.816Z,99102.15
2023-02-21T10:15:10.740Z,99110.08
2023-02-21T10:20:39.393Z,99121.59
2023-02-21T10:25:46.985Z,99120.50
2023-02-21T10:30:56.080Z,99113.20
2023-02-21T10:36:00.331Z,99114.73
2023-02-21T10:41:05.600Z,99127.67
2023-02-21T10:46:24.473Z,99125.21
2023-02-21T10:51:35.795Z,99137.52
2023-02-21T10:56:39.067Z,99139.18
2023-02-21T11:01:46.969Z,99144.06
2023-02-21T11:06:50.940Z,99143.11
2023-02-21T11:12:06.947Z,99146.30
2023-02-21T11:17:15.449Z,99149.33
2023-02-21T11:22:25.278Z,99158.46
2023-02-21T11:27:32.394Z,99159.11
2023-02-21T11:32:40.755Z,99160.17
2023-02-21T11:38:00.162Z,99166.91
2023-02-21T11:43:18.622Z,99168.48
2023-02-21T11:48:31.810Z,99169.11
2023-02-21T11:53:42.332Z,99180.39
2023-02-21T11:58:59.246Z,99191.07
2023-02-21T12:04:31.087Z,99190.51
2023-02-21T12:09:48.197Z,99202.73
2023-02-21T12:15:10.180Z,99207.27
2023-02-21T12:20:25.600Z,99206.45
2023-02-21T12:26:22.880Z,99210.52
2023-02-21T12:32:01.093Z,99204.49
2023-02-21T12:37:19.226Z,99208.22
2023-02-21T12:42:44.614Z,99208.53
2023-02-21T12:48:26.504Z,99210.80
2023-02-21T12:53:36.737Z,99209.35
2023-02-21T12:58:49.853Z,99212.52
2023-02-21T13:04:19.370Z,99208.77
2023-02-21T13:09:36.332Z,99211.33
2023-02-21T13:15:13.542Z,99221.40
2023-02-21T13:20:21.568Z,99222.90
2023-02-21T13:25:45.606Z,99226.85
2023-02-21T13:30:53.604Z,99232.10
2023-02-21T13:36:01.447Z,99238.38
2023-02-21T13:41:18.255Z,99239.90
2023-02-21T13:46:46.113Z,99250.31
2023-02-21T13:51:53.220Z,99250.77
2023-02-21T13:56:56.528Z,99262.08
2023-02-21T14:02:29.111Z,99261.86
2023-02-21T14:07:48.223Z,99258.72
2023-02-21T14:13:04.808Z,99262.52
2023-02-21T14:18:17.241Z,99263.77
2023-02-21T14:23:24.119Z,99270.29
2023-02-21T14:28:47.422Z,99270.94
2023-02-21T14:33:51.609Z,99278.96
2023-02-21T14:38:54.552Z,99283.30
2023-02-21T14:44:04.354Z,99285.43
2023-02-21T14:49:25.883Z,99295.63
2023-02-21T14:55:03.990Z,99299.63
2023-02-21T15:00:21.802Z,99303.26
2023-02-21T15:05:52.864Z,99306.52
2023-02-21T15:11:06.424Z,99316.98
2023-02-21T15:16:12.074Z,99321.66
2023-02-21T15:21:18.976Z,99328.61
2023-02-21T15:26:30.661Z,99339.13
2023-02-21T15:31:50.708Z,99341.41
2023-02-21T15:37:09.291Z,99349.35
2023-02-21T15:42:17.672Z,99358.33
2023-02-21T15:47:23.274Z,99353.66
2023-02-21T15:52:37.139Z,99362.25
2023-02-21T15:57:42.608Z,99369.73
2023-02-21T16:02:49.126Z,99373.89
2023-02-21T16:07:56.866Z,99375.96
2023-02-21T16:13:05.254Z,99380.58
2023-02-21T16:18:15.692Z,99388.81
2023-02-21T16:23:31.219Z,99394.30
2023-02-21T16:28:34.500Z,99405.29
2023-02-21T16:33:38.206Z,99406.58
2023-02-21T16:38:43.173Z,99413.36
2023-02-21T16:43:49.689Z,99421.38
2023-02-21T16:48:55.812Z,99424.61
2023-02-21T16:54:03.086Z,99431.82
2023-02-21T16:59:09.994Z,99443.33
2023-02-21T17:04:23.332Z,99445.70
2023-02-21T17:09:30.819Z,99458.33
2023-02-21T17:14:34.878Z,99458.23
2023-02-21T17:19:41.092Z,99465.70
2023-02-21T17:24:44.736Z,99469.14
2023-02-21T17:29:48.869Z,99482.11
2023-02-21T17:34:51.790Z,99487.30
2023-02-21T17:39:56.078Z,99493.32
2023-02-21T17:45:03.050Z,99497.98
2023-02-21T17:50:10.982Z,99503.36
2023-02-21T17:55:25.835Z,99506.44
2023-02-21T18:00:30.904Z,99504.78
2023-02-21T18:05:36.514Z,99509.73
2023-02-21T18:10:46.274Z,99509.66
2023-02-21T18:15:51.703Z,99516.08
2023-02-21T18:21:01.142Z,99513.45
2023-02-21T18:26:04.547Z,99518.56
2023-02-21T18:31:10.818Z,99522.30
2023-02-21T18:36:17.739Z,99523.65
2023-02-21T18:41:24.296Z,99527.84
2023-02-21T18:46:27.944Z,99529.84
2023-02-21T18:51:36.325Z,99535.98
2023-02-21T18:56:50.793Z,99541.94
2023-02-21T19:01:56.346Z,99542.95
2023-02-21T19:07:06.105Z,99548.11
2023-02-21T19:12:11.356Z,99555.23
2023-02-21T19:17:15.428Z,99559.04
2023-02-21T19:22:20.412Z,99561.24
2023-02-21T19:27:24.945Z,99566.44
2023-02-21T19:32:28.672Z,99572.38
2023-02-21T19:37:32.760Z,99575.15
2023-02-21T19:42:38.138Z,99577.96
2023-02-21T19:47:41.343Z,99585.39
2023-02-21T19:52:56.625Z,99587.35
2023-02-21T19:58:09.897Z,99592.27
2023-02-21T20:03:14.343Z,99596.86
2023-02-21T20:08:18.966Z,99596.86
2023-02-21T20:13:22.608Z,99597.45
2023-02-21T20:18:24.847Z,99605.09
2023-02-21T20:23:27.324Z,99607.13
2023-02-21T20:28:30.827Z,99615.99
2023-02-21T20:33:36.565Z,99614.97
2023-02-21T20:38:39.878Z,99612.84
2023-02-21T20:43:43.332Z,99614.93
2023-02-21T20:48:45.367Z,99617.05
2023-02-21T20:53:49.105Z,99617.25
2023-02-21T20:58:51.402Z,99623.80
2023-02-21T21:03:55.270Z,99627.08
2023-02-21T21:08:58.187Z,99629.17
2023-02-21T21:14:04.269Z,99633.77
2023-02-21T21:19:09.064Z,99638.25
2023-02-21T21:24:14.010Z,99640.58
2023-02-21T21:29:18.227Z,99645.52
2023-02-21T21:34:23.980Z,99650.95
2023-02-21T21:39:27.835Z,99652.38
2023-02-21T21:44:29.966Z,99660.17
2023-02-21T21:49:35.461Z,99661.36
2023-02-21T21:54:41.357Z,99661.71
2023-02-21T21:59:49.774Z,99666.50
2023-02-21T22:04:54.656Z,99666.29
2023-02-21T22:09:57.633Z,99667.37
2023-02-21T22:15:00.636Z,99670.07
2023-02-21T22:20:16.942Z,99672.63
2023-02-21T22:25:21.279Z,99684.20
2023-02-21T22:30:26.469Z,99687.64
2023-02-21T22:35:29.457Z,99692.23
2023-02-21T22:40:36.887Z,99700.36
2023-02-21T22:45:40.328Z,99703.20
2023-02-21T22:50:48.134Z,99710.16
2023-02-21T22:55:53.238Z,99714.66
2023-02-21T23:01:00.550Z,99721.66
2023-02-21T23:06:08.768Z,99723.23
2023-02-21T23:11:24.201Z,99727.10
2023-02-21T23:16:28.004Z,99730.29
2023-02-21T23:21:31.197Z,99729.61
2023-02-21T23:26:34.880Z,99733.25
2023-02-21T23:31:38.924Z,99737.17
2023-02-21T23:36:45.310Z,99733.16
2023-02-21T23:41:49.427Z,99739.83
2023-02-21T23:46:53.931Z,99744.69
2023-02-21T23:51:57.406Z,99748.71
2023-02-21T23:57:00.959Z,99752.04
